sensor_id;sensor_type;location;lat;lon;timestamp;temperature;humidity
12885;DHT22;6510;51.362;7.370;2022-08-01T00:00:20;18.30;99.90
12885;DHT22;6510;51.362;7.370;2022-08-01T00:02:49;18.30;99.90
12885;DHT22;6510;51.362;7.370;2022-08-01T00:05:15;18.30;99.90
12885;DHT22;6510;51.362;7.370;2022-08-01T00:07:41;18.30;99.90
12885;DHT22;6510;51.362;7.370;2022-08-01T00:10:09;18.20;99.90
12885;DHT22;6510;51.362;7.370;2022-08-01T00:12:35;18.20;99.90
12885;DHT22;6510;51.362;7.370;2022-08-01T00:15:02;18.20;99.90
12885;DHT22;6510;51.362;7.370;2022-08-01T00:17:28;18.10;99.90
12885;DHT22;6510;51.362;7.370;2022-08-01T00:19:53;18.10;99.90
12885;DHT22;6510;51.362;7.370;2022-08-01T00:22:19;18.10;99.90
12885;DHT22;6510;51.362;7.370;2022-08-01T00:24:45;18.10;99.90
12885;DHT22;6510;51.362;7.370;2022-08-01T00:27:10;18.10;99.90
12885;DHT22;6510;51.362;7.370;2022-08-01T00:29:36;18.10;99.90
12885;DHT22;6510;51.362;7.370;2022-08-01T00:32:02;18.00;99.90
12885;DHT22;6510;51.362;7.370;2022-08-01T00:34:27;18.10;99.90
12885;DHT22;6510;51.362;7.370;2022-08-01T00:36:53;18.10;99.90
12885;DHT22;6510;51.362;7.370;2022-08-01T00:39:18;18.10;99.90
12885;DHT22;6510;51.362;7.370;2022-08-01T00:41:44;18.10;99.90
12885;DHT22;6510;51.362;7.370;2022-08-01T00:44:10;18.10;99.90
12885;DHT22;6510;51.362;7.370;2022-08-01T00:46:35;18.10;99.90
12885;DHT22;6510;51.362;7.370;2022-08-01T00:49:01;18.10;99.90
12885;DHT22;6510;51.362;7.370;2022-08-01T00:51:27;18.00;99.90
12885;DHT22;6510;51.362;7.370;2022-08-01T00:53:54;18.10;99.90
12885;DHT22;6510;51.362;7.370;2022-08-01T00:56:21;18.00;99.90
12885;DHT22;6510;51.362;7.370;2022-08-01T00:58:47;18.00;99.90
12885;DHT22;6510;51.362;7.370;2022-08-01T01:01:13;18.10;99.90
12885;DHT22;6510;51.362;7.370;2022-08-01T01:03:38;18.10;99.90
12885;DHT22;6510;51.362;7.370;2022-08-01T01:06:25;18.10;99.90
12885;DHT22;6510;51.362;7.370;2022-08-01T01:17:18;18.10;99.90
12885;DHT22;6510;51.362;7.370;2022-08-01T01:19:47;18.10;99.90
12885;DHT22;6510;51.362;7.370;2022-08-01T01:22:22;18.10;99.90
12885;DHT22;6510;51.362;7.370;2022-08-01T01:30:29;18.10;99.90
12885;DHT22;6510;51.362;7.370;2022-08-01T01:32:59;18.10;99.90
12885;DHT22;6510;51.362;7.370;2022-08-01T01:35:31;18.10;99.90
12885;DHT22;6510;51.362;7.370;2022-08-01T01:38:05;18.10;99.90
12885;DHT22;6510;51.362;7.370;2022-08-01T01:40:33;18.20;99.90
12885;DHT22;6510;51.362;7.370;2022-08-01T01:43:00;18.20;99.90
12885;DHT22;6510;51.362;7.370;2022-08-01T01:45:26;18.20;99.90
12885;DHT22;6510;51.362;7.370;2022-08-01T01:47:52;18.20;99.90
12885;DHT22;6510;51.362;7.370;2022-08-01T01:50:23;18.10;99.90
12885;DHT22;6510;51.362;7.370;2022-08-01T01:52:50;18.20;99.90
12885;DHT22;6510;51.362;7.370;2022-08-01T01:55:22;18.10;99.90
12885;DHT22;6510;51.362;7.370;2022-08-01T01:57:50;18.10;99.90
12885;DHT22;6510;51.362;7.370;2022-08-01T02:00:17;18.10;99.90
12885;DHT22;6510;51.362;7.370;2022-08-01T02:02:44;18.10;99.90
12885;DHT22;6510;51.362;7.370;2022-08-01T02:05:11;18.10;99.90
12885;DHT22;6510;51.362;7.370;2022-08-01T02:07:39;18.20;99.90
12885;DHT22;6510;51.362;7.370;2022-08-01T02:10:06;18.20;99.90
12885;DHT22;6510;51.362;7.370;2022-08-01T02:12:35;18.10;99.90
12885;DHT22;6510;51.362;7.370;2022-08-01T02:15:03;18.10;99.90
12885;DHT22;6510;51.362;7.370;2022-08-01T02:17:30;18.10;99.90
12885;DHT22;6510;51.362;7.370;2022-08-01T02:19:57;18.10;99.90
12885;DHT22;6510;51.362;7.370;2022-08-01T02:22:31;18.10;99.90
12885;DHT22;6510;51.362;7.370;2022-08-01T02:25:11;18.10;99.90
12885;DHT22;6510;51.362;7.370;2022-08-01T02:27:41;18.10;99.90
12885;DHT22;6510;51.362;7.370;2022-08-01T02:30:12;18.10;99.90
12885;DHT22;6510;51.362;7.370;2022-08-01T02:32:55;18.00;99.90
12885;DHT22;6510;51.362;7.370;2022-08-01T02:35:32;18.00;99.90
12885;DHT22;6510;51.362;7.370;2022-08-01T02:38:00;18.00;99.90
12885;DHT22;6510;51.362;7.370;2022-08-01T02:40:28;18.00;99.90
12885;DHT22;6510;51.362;7.370;2022-08-01T02:42:55;18.00;99.90
12885;DHT22;6510;51.362;7.370;2022-08-01T02:45:24;18.10;99.90
12885;DHT22;6510;51.362;7.370;2022-08-01T02:47:53;18.00;99.90
12885;DHT22;6510;51.362;7.370;2022-08-01T02:50:22;18.10;99.90
12885;DHT22;6510;51.362;7.370;2022-08-01T02:52:50;18.00;99.90
12885;DHT22;6510;51.362;7.370;2022-08-01T02:55:18;18.00;99.90
12885;DHT22;6510;51.362;7.370;2022-08-01T02:57:46;18.00;99.90
12885;DHT22;6510;51.362;7.370;2022-08-01T03:00:15;18.00;99.90
12885;DHT22;6510;51.362;7.370;2022-08-01T03:02:42;17.90;99.90
12885;DHT22;6510;51.362;7.370;2022-08-01T03:05:12;18.00;99.90
12885;DHT22;6510;51.362;7.370;2022-08-01T03:07:39;17.90;99.90
12885;DHT22;6510;51.362;7.370;2022-08-01T03:10:13;17.90;99.90
12885;DHT22;6510;51.362;7.370;2022-08-01T03:12:40;18.00;99.90
12885;DHT22;6510;51.362;7.370;2022-08-01T03:15:07;18.00;99.90
12885;DHT22;6510;51.362;7.370;2022-08-01T03:17:35;18.00;99.90
12885;DHT22;6510;51.362;7.370;2022-08-01T03:20:02;18.00;99.90
12885;DHT22;6510;51.362;7.370;2022-08-01T03:22:30;18.00;99.90
12885;DHT22;6510;51.362;7.370;2022-08-01T03:24:58;17.90;99.90
12885;DHT22;6510;51.362;7.370;2022-08-01T03:27:25;18.00;99.90
12885;DHT22;6510;51.362;7.370;2022-08-01T03:29:52;18.00;99.90
12885;DHT22;6510;51.362;7.370;2022-08-01T03:32:21;18.00;99.90
12885;DHT22;6510;51.362;7.370;2022-08-01T03:34:47;18.00;99.90
12885;DHT22;6510;51.362;7.370;2022-08-01T03:39:49;18.00;99.90
12885;DHT22;6510;51.362;7.370;2022-08-01T03:42:20;18.00;99.90
12885;DHT22;6510;51.362;7.370;2022-08-01T03:44:54;18.00;99.90
12885;DHT22;6510;51.362;7.370;2022-08-01T03:47:26;18.10;99.90
12885;DHT22;6510;51.362;7.370;2022-08-01T03:49:56;18.00;99.90
12885;DHT22;6510;51.362;7.370;2022-08-01T03:52:25;18.00;99.90
12885;DHT22;6510;51.362;7.370;2022-08-01T03:54:55;18.00;99.90
12885;DHT22;6510;51.362;7.370;2022-08-01T03:57:22;18.00;99.90
12885;DHT22;6510;51.362;7.370;2022-08-01T03:59:49;18.00;99.90
12885;DHT22;6510;51.362;7.370;2022-08-01T04:02:16;18.00;99.90
12885;DHT22;6510;51.362;7.370;2022-08-01T04:04:42;18.00;99.90
12885;DHT22;6510;51.362;7.370;2022-08-01T04:07:24;17.90;99.90
12885;DHT22;6510;51.362;7.370;2022-08-01T04:09:50;18.00;99.90
12885;DHT22;6510;51.362;7.370;2022-08-01T04:12:17;18.00;99.90
12885;DHT22;6510;51.362;7.370;2022-08-01T04:14:43;17.90;99.90
12885;DHT22;6510;51.362;7.370;2022-08-01T04:17:09;17.90;99.90
12885;DHT22;6510;51.362;7.370;2022-08-01T04:19:34;17.90;99.90
12885;DHT22;6510;51.362;7.370;2022-08-01T04:22:02;17.90;99.90
12885;DHT22;6510;51.362;7.370;2022-08-01T04:24:29;17.90;99.90
12885;DHT22;6510;51.362;7.370;2022-08-01T04:26:58;17.90;99.90
12885;DHT22;6510;51.362;7.370;2022-08-01T04:29:26;18.00;99.90
12885;DHT22;6510;51.362;7.370;2022-08-01T04:31:56;17.90;99.90
12885;DHT22;6510;51.362;7.370;2022-08-01T04:34:27;17.80;99.90
12885;DHT22;6510;51.362;7.370;2022-08-01T04:36:55;17.80;99.90
12885;DHT22;6510;51.362;7.370;2022-08-01T04:39:24;17.80;99.90
12885;DHT22;6510;51.362;7.370;2022-08-01T04:41:58;17.90;99.90
12885;DHT22;6510;51.362;7.370;2022-08-01T04:44:25;17.90;99.90
12885;DHT22;6510;51.362;7.370;2022-08-01T04:46:53;17.90;99.90
12885;DHT22;6510;51.362;7.370;2022-08-01T04:49:21;17.90;99.90
12885;DHT22;6510;51.362;7.370;2022-08-01T04:51:54;17.90;99.90
12885;DHT22;6510;51.362;7.370;2022-08-01T04:54:25;17.90;99.90
12885;DHT22;6510;51.362;7.370;2022-08-01T04:56:51;17.90;99.90
12885;DHT22;6510;51.362;7.370;2022-08-01T04:59:19;17.90;99.90
12885;DHT22;6510;51.362;7.370;2022-08-01T05:02:03;18.00;99.90
12885;DHT22;6510;51.362;7.370;2022-08-01T05:04:29;18.00;99.90
12885;DHT22;6510;51.362;7.370;2022-08-01T05:06:55;18.00;99.90
12885;DHT22;6510;51.362;7.370;2022-08-01T05:09:20;18.00;99.90
12885;DHT22;6510;51.362;7.370;2022-08-01T05:11:46;18.10;99.90
12885;DHT22;6510;51.362;7.370;2022-08-01T05:14:12;18.20;99.90
12885;DHT22;6510;51.362;7.370;2022-08-01T05:16:37;18.30;99.90
12885;DHT22;6510;51.362;7.370;2022-08-01T05:19:03;18.40;99.90
12885;DHT22;6510;51.362;7.370;2022-08-01T05:21:29;18.50;99.90
12885;DHT22;6510;51.362;7.370;2022-08-01T05:23:54;18.50;99.90
12885;DHT22;6510;51.362;7.370;2022-08-01T05:26:20;18.60;99.90
12885;DHT22;6510;51.362;7.370;2022-08-01T05:28:45;18.50;99.90
12885;DHT22;6510;51.362;7.370;2022-08-01T05:31:11;18.30;99.90
12885;DHT22;6510;51.362;7.370;2022-08-01T05:33:37;18.30;99.90
12885;DHT22;6510;51.362;7.370;2022-08-01T05:36:02;18.50;99.90
12885;DHT22;6510;51.362;7.370;2022-08-01T05:38:28;18.40;99.90
12885;DHT22;6510;51.362;7.370;2022-08-01T05:40:54;18.40;99.90
12885;DHT22;6510;51.362;7.370;2022-08-01T05:43:19;18.40;99.90
12885;DHT22;6510;51.362;7.370;2022-08-01T05:45:45;18.30;99.90
12885;DHT22;6510;51.362;7.370;2022-08-01T05:48:11;18.40;99.90
12885;DHT22;6510;51.362;7.370;2022-08-01T05:50:37;18.50;99.90
12885;DHT22;6510;51.362;7.370;2022-08-01T05:53:02;18.50;99.90
12885;DHT22;6510;51.362;7.370;2022-08-01T05:55:28;18.60;99.90
12885;DHT22;6510;51.362;7.370;2022-08-01T05:57:54;18.60;99.90
12885;DHT22;6510;51.362;7.370;2022-08-01T06:00:19;18.60;99.90
12885;DHT22;6510;51.362;7.370;2022-08-01T06:02:45;18.60;99.90
12885;DHT22;6510;51.362;7.370;2022-08-01T06:05:11;18.60;99.90
12885;DHT22;6510;51.362;7.370;2022-08-01T06:07:37;18.50;99.90
12885;DHT22;6510;51.362;7.370;2022-08-01T06:10:04;18.50;99.90
12885;DHT22;6510;51.362;7.370;2022-08-01T06:12:33;18.50;99.90
12885;DHT22;6510;51.362;7.370;2022-08-01T06:14:58;18.50;99.90
12885;DHT22;6510;51.362;7.370;2022-08-01T06:17:24;18.50;99.90
12885;DHT22;6510;51.362;7.370;2022-08-01T06:19:50;18.40;99.90
12885;DHT22;6510;51.362;7.370;2022-08-01T06:22:16;18.30;99.90
12885;DHT22;6510;51.362;7.370;2022-08-01T06:24:41;18.30;99.90
12885;DHT22;6510;51.362;7.370;2022-08-01T06:27:07;18.30;99.90
12885;DHT22;6510;51.362;7.370;2022-08-01T06:29:32;18.30;99.90
12885;DHT22;6510;51.362;7.370;2022-08-01T06:31:58;18.30;99.90
12885;DHT22;6510;51.362;7.370;2022-08-01T06:34:24;18.30;99.90
12885;DHT22;6510;51.362;7.370;2022-08-01T06:36:50;18.40;99.90
12885;DHT22;6510;51.362;7.370;2022-08-01T06:39:15;18.40;99.90
12885;DHT22;6510;51.362;7.370;2022-08-01T06:41:41;18.50;99.90
12885;DHT22;6510;51.362;7.370;2022-08-01T06:44:07;18.60;99.90
12885;DHT22;6510;51.362;7.370;2022-08-01T06:46:34;18.60;99.90
12885;DHT22;6510;51.362;7.370;2022-08-01T06:48:59;18.60;99.90
12885;DHT22;6510;51.362;7.370;2022-08-01T06:51:25;18.60;99.90
12885;DHT22;6510;51.362;7.370;2022-08-01T06:53:51;18.60;99.90
12885;DHT22;6510;51.362;7.370;2022-08-01T06:56:16;18.60;99.90
12885;DHT22;6510;51.362;7.370;2022-08-01T06:58:42;18.80;99.90
12885;DHT22;6510;51.362;7.370;2022-08-01T07:01:07;18.90;99.90
12885;DHT22;6510;51.362;7.370;2022-08-01T07:03:34;18.80;99.90
12885;DHT22;6510;51.362;7.370;2022-08-01T07:06:00;19.00;99.90
12885;DHT22;6510;51.362;7.370;2022-08-01T07:08:26;19.10;99.90
12885;DHT22;6510;51.362;7.370;2022-08-01T07:10:51;19.20;99.90
12885;DHT22;6510;51.362;7.370;2022-08-01T07:13:17;19.70;99.90
12885;DHT22;6510;51.362;7.370;2022-08-01T07:15:47;21.10;99.90
12885;DHT22;6510;51.362;7.370;2022-08-01T07:18:13;21.00;99.90
12885;DHT22;6510;51.362;7.370;2022-08-01T07:20:38;22.10;99.90
12885;DHT22;6510;51.362;7.370;2022-08-01T07:23:04;22.70;99.90
12885;DHT22;6510;51.362;7.370;2022-08-01T07:25:30;23.70;99.90
12885;DHT22;6510;51.362;7.370;2022-08-01T07:27:56;23.20;99.90
12885;DHT22;6510;51.362;7.370;2022-08-01T07:30:21;22.80;99.90
12885;DHT22;6510;51.362;7.370;2022-08-01T07:32:47;23.60;99.90
12885;DHT22;6510;51.362;7.370;2022-08-01T07:35:13;23.00;99.90
12885;DHT22;6510;51.362;7.370;2022-08-01T07:37:39;21.50;99.90
12885;DHT22;6510;51.362;7.370;2022-08-01T07:40:05;20.60;99.90
12885;DHT22;6510;51.362;7.370;2022-08-01T07:42:31;20.20;99.90
12885;DHT22;6510;51.362;7.370;2022-08-01T07:44:57;19.80;99.90
12885;DHT22;6510;51.362;7.370;2022-08-01T07:47:26;20.70;99.90
12885;DHT22;6510;51.362;7.370;2022-08-01T07:49:58;22.00;99.90
12885;DHT22;6510;51.362;7.370;2022-08-01T07:52:24;23.10;99.90
12885;DHT22;6510;51.362;7.370;2022-08-01T07:54:49;22.70;99.90
12885;DHT22;6510;51.362;7.370;2022-08-01T07:57:15;21.70;99.90
12885;DHT22;6510;51.362;7.370;2022-08-01T07:59:40;20.90;99.90
12885;DHT22;6510;51.362;7.370;2022-08-01T08:02:06;20.70;99.90
12885;DHT22;6510;51.362;7.370;2022-08-01T08:04:32;21.90;99.90
12885;DHT22;6510;51.362;7.370;2022-08-01T08:06:57;21.60;99.90
12885;DHT22;6510;51.362;7.370;2022-08-01T08:09:23;20.90;99.90
12885;DHT22;6510;51.362;7.370;2022-08-01T08:11:49;20.60;99.90
12885;DHT22;6510;51.362;7.370;2022-08-01T08:14:16;22.90;99.90
12885;DHT22;6510;51.362;7.370;2022-08-01T08:16:42;23.40;99.90
12885;DHT22;6510;51.362;7.370;2022-08-01T08:19:08;24.80;99.90
12885;DHT22;6510;51.362;7.370;2022-08-01T08:21:33;25.00;99.90
12885;DHT22;6510;51.362;7.370;2022-08-01T08:23:59;23.40;99.90
12885;DHT22;6510;51.362;7.370;2022-08-01T08:26:43;23.00;99.90
12885;DHT22;6510;51.362;7.370;2022-08-01T08:29:09;24.20;99.90
12885;DHT22;6510;51.362;7.370;2022-08-01T08:31:34;23.30;99.90
12885;DHT22;6510;51.362;7.370;2022-08-01T08:34:00;23.90;99.90
12885;DHT22;6510;51.362;7.370;2022-08-01T08:36:28;23.90;99.90
12885;DHT22;6510;51.362;7.370;2022-08-01T08:38:54;24.80;99.90
12885;DHT22;6510;51.362;7.370;2022-08-01T08:41:21;25.20;99.90
12885;DHT22;6510;51.362;7.370;2022-08-01T08:43:47;25.50;99.90
12885;DHT22;6510;51.362;7.370;2022-08-01T08:46:13;26.30;99.90
12885;DHT22;6510;51.362;7.370;2022-08-01T08:48:40;24.90;99.90
12885;DHT22;6510;51.362;7.370;2022-08-01T08:51:06;25.60;99.90
12885;DHT22;6510;51.362;7.370;2022-08-01T08:53:35;24.60;99.90
12885;DHT22;6510;51.362;7.370;2022-08-01T08:56:02;24.70;99.90
12885;DHT22;6510;51.362;7.370;2022-08-01T08:58:28;24.60;99.90
12885;DHT22;6510;51.362;7.370;2022-08-01T09:00:54;24.40;99.90
12885;DHT22;6510;51.362;7.370;2022-08-01T09:03:20;25.70;99.90
12885;DHT22;6510;51.362;7.370;2022-08-01T09:05:45;25.70;99.90
12885;DHT22;6510;51.362;7.370;2022-08-01T09:08:12;25.40;99.90
12885;DHT22;6510;51.362;7.370;2022-08-01T09:10:37;25.10;99.90
12885;DHT22;6510;51.362;7.370;2022-08-01T09:13:11;24.00;99.90
12885;DHT22;6510;51.362;7.370;2022-08-01T09:15:46;24.10;99.90
12885;DHT22;6510;51.362;7.370;2022-08-01T09:18:41;25.20;99.90
12885;DHT22;6510;51.362;7.370;2022-08-01T09:21:17;25.20;99.90
12885;DHT22;6510;51.362;7.370;2022-08-01T09:23:51;25.90;99.90
12885;DHT22;6510;51.362;7.370;2022-08-01T09:26:35;26.20;99.90
12885;DHT22;6510;51.362;7.370;2022-08-01T09:29:08;25.40;99.90
12885;DHT22;6510;51.362;7.370;2022-08-01T09:31:43;24.30;99.90
12885;DHT22;6510;51.362;7.370;2022-08-01T09:34:09;23.50;99.90
12885;DHT22;6510;51.362;7.370;2022-08-01T09:36:57;23.10;99.90
12885;DHT22;6510;51.362;7.370;2022-08-01T09:39:31;22.70;99.90
12885;DHT22;6510;51.362;7.370;2022-08-01T09:42:02;22.40;99.90
12885;DHT22;6510;51.362;7.370;2022-08-01T09:44:45;22.30;99.90
12885;DHT22;6510;51.362;7.370;2022-08-01T09:47:12;22.60;99.90
12885;DHT22;6510;51.362;7.370;2022-08-01T09:49:39;22.60;99.90
12885;DHT22;6510;51.362;7.370;2022-08-01T09:52:17;22.50;99.90
12885;DHT22;6510;51.362;7.370;2022-08-01T09:54:58;23.40;99.90
12885;DHT22;6510;51.362;7.370;2022-08-01T09:57:25;23.90;99.90
12885;DHT22;6510;51.362;7.370;2022-08-01T09:59:53;24.90;99.90
12885;DHT22;6510;51.362;7.370;2022-08-01T10:02:39;24.50;99.90
12885;DHT22;6510;51.362;7.370;2022-08-01T10:05:10;23.70;99.90
12885;DHT22;6510;51.362;7.370;2022-08-01T10:07:55;24.10;99.90
12885;DHT22;6510;51.362;7.370;2022-08-01T10:10:21;24.10;99.90
12885;DHT22;6510;51.362;7.370;2022-08-01T10:13:07;24.10;99.90
12885;DHT22;6510;51.362;7.370;2022-08-01T10:15:34;24.60;99.90
12885;DHT22;6510;51.362;7.370;2022-08-01T10:18:02;23.40;99.90
12885;DHT22;6510;51.362;7.370;2022-08-01T10:20:31;24.20;99.90
12885;DHT22;6510;51.362;7.370;2022-08-01T10:23:02;24.90;99.90
12885;DHT22;6510;51.362;7.370;2022-08-01T10:25:31;26.20;99.90
12885;DHT22;6510;51.362;7.370;2022-08-01T10:28:00;27.20;99.90
12885;DHT22;6510;51.362;7.370;2022-08-01T10:30:27;26.50;99.90
12885;DHT22;6510;51.362;7.370;2022-08-01T10:32:54;25.70;99.90
12885;DHT22;6510;51.362;7.370;2022-08-01T10:35:21;24.60;99.90
12885;DHT22;6510;51.362;7.370;2022-08-01T10:37:47;23.90;99.90
12885;DHT22;6510;51.362;7.370;2022-08-01T10:40:13;24.00;99.90
12885;DHT22;6510;51.362;7.370;2022-08-01T10:42:42;24.50;99.90
12885;DHT22;6510;51.362;7.370;2022-08-01T10:45:09;24.90;99.90
12885;DHT22;6510;51.362;7.370;2022-08-01T10:47:57;25.20;99.90
12885;DHT22;6510;51.362;7.370;2022-08-01T10:50:39;25.70;99.90
12885;DHT22;6510;51.362;7.370;2022-08-01T10:53:16;26.60;99.90
12885;DHT22;6510;51.362;7.370;2022-08-01T10:58:23;25.90;99.90
12885;DHT22;6510;51.362;7.370;2022-08-01T11:01:17;25.60;99.90
12885;DHT22;6510;51.362;7.370;2022-08-01T11:04:02;25.40;99.90
12885;DHT22;6510;51.362;7.370;2022-08-01T11:09:21;24.20;99.90
12885;DHT22;6510;51.362;7.370;2022-08-01T11:17:40;24.60;99.90
12885;DHT22;6510;51.362;7.370;2022-08-01T11:20:24;24.90;99.90
12885;DHT22;6510;51.362;7.370;2022-08-01T11:28:23;24.40;99.90
12885;DHT22;6510;51.362;7.370;2022-08-01T11:30:51;24.20;99.90
12885;DHT22;6510;51.362;7.370;2022-08-01T11:33:19;24.20;99.90
12885;DHT22;6510;51.362;7.370;2022-08-01T11:38:37;26.90;99.90
12885;DHT22;6510;51.362;7.370;2022-08-01T11:46:57;27.60;99.90
12885;DHT22;6510;51.362;7.370;2022-08-01T11:57:22;25.40;99.90
12885;DHT22;6510;51.362;7.370;2022-08-01T11:59:57;26.00;99.90
12885;DHT22;6510;51.362;7.370;2022-08-01T12:02:33;26.40;99.90
12885;DHT22;6510;51.362;7.370;2022-08-01T12:05:02;27.00;99.90
12885;DHT22;6510;51.362;7.370;2022-08-01T12:07:29;27.50;99.90
12885;DHT22;6510;51.362;7.370;2022-08-01T12:10:04;27.50;99.90
12885;DHT22;6510;51.362;7.370;2022-08-01T12:12:31;27.70;99.90
12885;DHT22;6510;51.362;7.370;2022-08-01T12:14:58;27.80;99.90
12885;DHT22;6510;51.362;7.370;2022-08-01T12:17:29;27.70;99.90
12885;DHT22;6510;51.362;7.370;2022-08-01T12:19:55;28.00;99.90
12885;DHT22;6510;51.362;7.370;2022-08-01T12:22:22;27.30;99.90
12885;DHT22;6510;51.362;7.370;2022-08-01T12:24:48;27.00;99.90
12885;DHT22;6510;51.362;7.370;2022-08-01T12:27:32;28.00;99.90
12885;DHT22;6510;51.362;7.370;2022-08-01T12:30:01;28.10;99.90
12885;DHT22;6510;51.362;7.370;2022-08-01T12:32:28;27.10;99.90
12885;DHT22;6510;51.362;7.370;2022-08-01T12:34:57;27.00;99.90
12885;DHT22;6510;51.362;7.370;2022-08-01T12:37:26;26.70;99.90
12885;DHT22;6510;51.362;7.370;2022-08-01T12:39:51;26.30;99.90
12885;DHT22;6510;51.362;7.370;2022-08-01T12:42:18;25.30;99.90
12885;DHT22;6510;51.362;7.370;2022-08-01T12:44:45;26.60;99.90
12885;DHT22;6510;51.362;7.370;2022-08-01T12:47:14;27.70;99.90
12885;DHT22;6510;51.362;7.370;2022-08-01T12:49:42;28.00;99.90
12885;DHT22;6510;51.362;7.370;2022-08-01T12:52:09;27.90;99.90
12885;DHT22;6510;51.362;7.370;2022-08-01T12:57:29;27.20;99.90
12885;DHT22;6510;51.362;7.370;2022-08-01T13:00:08;26.50;99.90
12885;DHT22;6510;51.362;7.370;2022-08-01T13:02:35;27.20;99.90
12885;DHT22;6510;51.362;7.370;2022-08-01T13:05:01;25.90;99.90
12885;DHT22;6510;51.362;7.370;2022-08-01T13:07:39;25.70;99.90
12885;DHT22;6510;51.362;7.370;2022-08-01T13:10:05;27.30;99.90
12885;DHT22;6510;51.362;7.370;2022-08-01T13:12:31;27.20;99.90
12885;DHT22;6510;51.362;7.370;2022-08-01T13:15:17;27.10;99.90
12885;DHT22;6510;51.362;7.370;2022-08-01T13:17:54;26.80;99.90
12885;DHT22;6510;51.362;7.370;2022-08-01T13:20:25;26.60;99.90
12885;DHT22;6510;51.362;7.370;2022-08-01T13:22:51;26.10;99.90
12885;DHT22;6510;51.362;7.370;2022-08-01T13:25:53;25.70;99.90
12885;DHT22;6510;51.362;7.370;2022-08-01T13:28:24;25.40;99.90
12885;DHT22;6510;51.362;7.370;2022-08-01T13:30:58;25.80;99.90
12885;DHT22;6510;51.362;7.370;2022-08-01T13:36:10;26.60;99.90
12885;DHT22;6510;51.362;7.370;2022-08-01T13:38:35;27.60;99.90
12885;DHT22;6510;51.362;7.370;2022-08-01T13:41:20;27.50;99.90
12885;DHT22;6510;51.362;7.370;2022-08-01T13:43:46;26.50;99.90
12885;DHT22;6510;51.362;7.370;2022-08-01T13:46:11;26.00;99.90
12885;DHT22;6510;51.362;7.370;2022-08-01T13:48:37;24.70;99.90
12885;DHT22;6510;51.362;7.370;2022-08-01T13:51:02;24.10;99.90
12885;DHT22;6510;51.362;7.370;2022-08-01T13:53:28;23.40;99.90
12885;DHT22;6510;51.362;7.370;2022-08-01T13:55:54;23.40;99.90
12885;DHT22;6510;51.362;7.370;2022-08-01T13:58:20;23.40;99.90
12885;DHT22;6510;51.362;7.370;2022-08-01T14:00:46;23.40;99.90
12885;DHT22;6510;51.362;7.370;2022-08-01T14:03:12;23.40;99.90
12885;DHT22;6510;51.362;7.370;2022-08-01T14:05:38;24.00;99.90
12885;DHT22;6510;51.362;7.370;2022-08-01T14:08:05;24.30;99.90
12885;DHT22;6510;51.362;7.370;2022-08-01T14:10:31;25.20;99.90
12885;DHT22;6510;51.362;7.370;2022-08-01T14:12:57;25.90;99.90
12885;DHT22;6510;51.362;7.370;2022-08-01T14:15:24;25.90;99.90
12885;DHT22;6510;51.362;7.370;2022-08-01T14:17:50;26.20;99.90
12885;DHT22;6510;51.362;7.370;2022-08-01T14:20:16;25.70;99.90
12885;DHT22;6510;51.362;7.370;2022-08-01T14:22:45;25.10;99.90
12885;DHT22;6510;51.362;7.370;2022-08-01T14:25:11;25.00;99.90
12885;DHT22;6510;51.362;7.370;2022-08-01T14:27:37;24.70;99.90
12885;DHT22;6510;51.362;7.370;2022-08-01T14:30:21;24.60;99.90
12885;DHT22;6510;51.362;7.370;2022-08-01T14:32:53;24.30;99.90
12885;DHT22;6510;51.362;7.370;2022-08-01T14:35:23;24.10;99.90
12885;DHT22;6510;51.362;7.370;2022-08-01T14:37:52;24.10;99.90
12885;DHT22;6510;51.362;7.370;2022-08-01T14:40:35;24.30;99.90
12885;DHT22;6510;51.362;7.370;2022-08-01T14:43:01;23.50;99.90
12885;DHT22;6510;51.362;7.370;2022-08-01T14:45:27;23.80;99.90
12885;DHT22;6510;51.362;7.370;2022-08-01T14:47:56;23.80;99.90
12885;DHT22;6510;51.362;7.370;2022-08-01T14:50:22;24.00;99.90
12885;DHT22;6510;51.362;7.370;2022-08-01T14:52:49;23.90;99.90
12885;DHT22;6510;51.362;7.370;2022-08-01T14:55:15;23.90;99.90
12885;DHT22;6510;51.362;7.370;2022-08-01T14:57:40;23.90;99.90
12885;DHT22;6510;51.362;7.370;2022-08-01T15:00:09;24.30;99.90
12885;DHT22;6510;51.362;7.370;2022-08-01T15:02:39;24.40;99.90
12885;DHT22;6510;51.362;7.370;2022-08-01T15:05:08;24.50;99.90
12885;DHT22;6510;51.362;7.370;2022-08-01T15:07:37;24.70;99.90
12885;DHT22;6510;51.362;7.370;2022-08-01T15:10:08;24.70;99.90
12885;DHT22;6510;51.362;7.370;2022-08-01T15:12:34;24.80;99.90
12885;DHT22;6510;51.362;7.370;2022-08-01T15:15:00;24.80;99.90
12885;DHT22;6510;51.362;7.370;2022-08-01T15:17:33;24.50;99.90
12885;DHT22;6510;51.362;7.370;2022-08-01T15:20:00;24.20;99.90
12885;DHT22;6510;51.362;7.370;2022-08-01T15:22:27;23.70;99.90
12885;DHT22;6510;51.362;7.370;2022-08-01T15:24:55;23.80;99.90
12885;DHT22;6510;51.362;7.370;2022-08-01T15:27:20;23.70;99.90
12885;DHT22;6510;51.362;7.370;2022-08-01T15:29:47;23.90;99.90
12885;DHT22;6510;51.362;7.370;2022-08-01T15:32:13;24.10;99.90
12885;DHT22;6510;51.362;7.370;2022-08-01T15:34:39;24.00;99.90
12885;DHT22;6510;51.362;7.370;2022-08-01T15:37:06;23.90;99.90
12885;DHT22;6510;51.362;7.370;2022-08-01T15:39:33;23.70;99.90
12885;DHT22;6510;51.362;7.370;2022-08-01T15:42:00;23.60;99.90
12885;DHT22;6510;51.362;7.370;2022-08-01T15:44:27;23.70;99.90
12885;DHT22;6510;51.362;7.370;2022-08-01T15:46:53;23.40;99.90
12885;DHT22;6510;51.362;7.370;2022-08-01T15:49:19;23.30;99.90
12885;DHT22;6510;51.362;7.370;2022-08-01T15:51:48;23.70;99.90
12885;DHT22;6510;51.362;7.370;2022-08-01T15:54:13;23.80;99.90
12885;DHT22;6510;51.362;7.370;2022-08-01T15:59:56;23.50;99.90
12885;DHT22;6510;51.362;7.370;2022-08-01T16:02:21;23.30;99.90
12885;DHT22;6510;51.362;7.370;2022-08-01T16:04:49;23.50;99.90
12885;DHT22;6510;51.362;7.370;2022-08-01T16:07:18;23.30;99.90
12885;DHT22;6510;51.362;7.370;2022-08-01T16:09:44;23.60;99.90
12885;DHT22;6510;51.362;7.370;2022-08-01T16:12:09;23.40;99.90
12885;DHT22;6510;51.362;7.370;2022-08-01T16:14:35;23.80;99.90
12885;DHT22;6510;51.362;7.370;2022-08-01T16:17:01;24.10;99.90
12885;DHT22;6510;51.362;7.370;2022-08-01T16:19:29;24.10;99.90
12885;DHT22;6510;51.362;7.370;2022-08-01T16:21:55;23.90;99.90
12885;DHT22;6510;51.362;7.370;2022-08-01T16:24:28;23.50;99.90
12885;DHT22;6510;51.362;7.370;2022-08-01T16:26:55;23.40;99.90
12885;DHT22;6510;51.362;7.370;2022-08-01T16:29:24;23.30;99.90
12885;DHT22;6510;51.362;7.370;2022-08-01T16:31:55;23.10;99.90
12885;DHT22;6510;51.362;7.370;2022-08-01T16:34:23;22.70;99.90
12885;DHT22;6510;51.362;7.370;2022-08-01T16:36:49;22.70;99.90
12885;DHT22;6510;51.362;7.370;2022-08-01T16:39:16;22.60;99.90
12885;DHT22;6510;51.362;7.370;2022-08-01T16:41:42;22.70;99.90
12885;DHT22;6510;51.362;7.370;2022-08-01T16:44:08;23.00;99.90
12885;DHT22;6510;51.362;7.370;2022-08-01T16:46:36;23.10;99.90
12885;DHT22;6510;51.362;7.370;2022-08-01T16:49:02;22.90;99.90
12885;DHT22;6510;51.362;7.370;2022-08-01T16:51:28;22.70;99.90